sensor_id;sensor_type;location;lat;lon;timestamp;P1;durP1;ratioP1;P2;durP2;ratioP2
60999;SDS011;46879;45.658;11.814;2023-06-01T00:03:59;12.85;;;5.53;;
60999;SDS011;46879;45.658;11.814;2023-06-01T00:09:00;9.40;;;5.90;;
60999;SDS011;46879;45.658;11.814;2023-06-01T00:14:02;7.97;;;5.07;;
60999;SDS011;46879;45.658;11.814;2023-06-01T00:19:03;7.35;;;5.50;;
60999;SDS011;46879;45.658;11.814;2023-06-01T00:24:05;9.68;;;5.82;;
60999;SDS011;46879;45.658;11.814;2023-06-01T00:29:12;7.70;;;5.40;;
60999;SDS011;46879;45.658;11.814;2023-06-01T00:34:13;10.45;;;5.50;;
60999;SDS011;46879;45.658;11.814;2023-06-01T00:39:13;8.27;;;5.45;;
60999;SDS011;46879;45.658;11.814;2023-06-01T00:44:14;10.93;;;6.07;;
60999;SDS011;46879;45.658;11.814;2023-06-01T00:49:14;8.27;;;5.18;;
60999;SDS011;46879;45.658;11.814;2023-06-01T00:54:15;13.68;;;5.57;;
60999;SDS011;46879;45.658;11.814;2023-06-01T00:59:16;8.07;;;5.68;;
60999;SDS011;46879;45.658;11.814;2023-06-01T01:04:17;8.55;;;5.22;;
60999;SDS011;46879;45.658;11.814;2023-06-01T01:14:54;10.52;;;5.82;;
60999;SDS011;46879;45.658;11.814;2023-06-01T01:25:39;7.68;;;5.40;;
60999;SDS011;46879;45.658;11.814;2023-06-01T01:31:16;8.77;;;5.25;;
60999;SDS011;46879;45.658;11.814;2023-06-01T01:36:18;7.60;;;5.60;;
60999;SDS011;46879;45.658;11.814;2023-06-01T01:41:20;9.85;;;5.40;;
60999;SDS011;46879;45.658;11.814;2023-06-01T01:46:23;8.52;;;5.22;;
60999;SDS011;46879;45.658;11.814;2023-06-01T01:52:12;7.45;;;4.55;;
60999;SDS011;46879;45.658;11.814;2023-06-01T01:56:57;8.38;;;5.18;;
60999;SDS011;46879;45.658;11.814;2023-06-01T02:02:00;7.95;;;5.15;;
60999;SDS011;46879;45.658;11.814;2023-06-01T02:07:01;9.73;;;5.20;;
60999;SDS011;46879;45.658;11.814;2023-06-01T02:12:02;6.78;;;5.18;;
60999;SDS011;46879;45.658;11.814;2023-06-01T02:17:03;9.43;;;5.03;;
60999;SDS011;46879;45.658;11.814;2023-06-01T02:22:05;8.35;;;5.38;;
60999;SDS011;46879;45.658;11.814;2023-06-01T02:27:06;7.75;;;5.30;;
60999;SDS011;46879;45.658;11.814;2023-06-01T02:32:07;6.47;;;5.43;;
60999;SDS011;46879;45.658;11.814;2023-06-01T02:37:08;7.93;;;4.93;;
60999;SDS011;46879;45.658;11.814;2023-06-01T02:42:09;8.10;;;5.50;;
60999;SDS011;46879;45.658;11.814;2023-06-01T02:47:09;8.10;;;5.85;;
60999;SDS011;46879;45.658;11.814;2023-06-01T02:52:10;9.20;;;5.82;;
60999;SDS011;46879;45.658;11.814;2023-06-01T02:57:10;7.13;;;4.70;;
60999;SDS011;46879;45.658;11.814;2023-06-01T03:02:11;7.32;;;5.20;;
60999;SDS011;46879;45.658;11.814;2023-06-01T03:07:12;8.93;;;5.15;;
60999;SDS011;46879;45.658;11.814;2023-06-01T03:12:14;5.65;;;4.47;;
60999;SDS011;46879;45.658;11.814;2023-06-01T03:17:14;11.45;;;5.45;;
60999;SDS011;46879;45.658;11.814;2023-06-01T03:22:15;10.85;;;5.28;;
60999;SDS011;46879;45.658;11.814;2023-06-01T03:27:16;7.40;;;5.70;;
60999;SDS011;46879;45.658;11.814;2023-06-01T03:32:17;7.80;;;4.82;;
60999;SDS011;46879;45.658;11.814;2023-06-01T03:37:17;8.27;;;5.20;;
60999;SDS011;46879;45.658;11.814;2023-06-01T03:42:18;7.43;;;5.40;;
60999;SDS011;46879;45.658;11.814;2023-06-01T03:47:19;7.22;;;5.63;;
60999;SDS011;46879;45.658;11.814;2023-06-01T03:52:20;10.73;;;5.50;;
60999;SDS011;46879;45.658;11.814;2023-06-01T03:57:20;6.13;;;4.70;;
60999;SDS011;46879;45.658;11.814;2023-06-01T04:02:21;7.85;;;5.35;;
60999;SDS011;46879;45.658;11.814;2023-06-01T04:07:22;6.50;;;4.88;;
60999;SDS011;46879;45.658;11.814;2023-06-01T04:12:23;10.57;;;5.20;;
60999;SDS011;46879;45.658;11.814;2023-06-01T04:17:24;7.00;;;5.00;;
60999;SDS011;46879;45.658;11.814;2023-06-01T04:22:24;6.47;;;4.90;;
60999;SDS011;46879;45.658;11.814;2023-06-01T04:27:25;8.27;;;5.20;;
60999;SDS011;46879;45.658;11.814;2023-06-01T04:32:27;7.15;;;4.75;;
60999;SDS011;46879;45.658;11.814;2023-06-01T04:37:27;8.80;;;5.38;;
60999;SDS011;46879;45.658;11.814;2023-06-01T04:42:29;12.55;;;5.07;;
60999;SDS011;46879;45.658;11.814;2023-06-01T04:47:33;8.55;;;5.20;;
60999;SDS011;46879;45.658;11.814;2023-06-01T04:52:38;14.10;;;5.07;;
60999;SDS011;46879;45.658;11.814;2023-06-01T04:57:40;15.20;;;5.57;;
60999;SDS011;46879;45.658;11.814;2023-06-01T05:02:44;7.03;;;5.28;;
60999;SDS011;46879;45.658;11.814;2023-06-01T05:07:47;8.18;;;5.15;;
60999;SDS011;46879;45.658;11.814;2023-06-01T05:12:48;9.70;;;5.72;;
60999;SDS011;46879;45.658;11.814;2023-06-01T05:17:49;9.15;;;5.25;;
60999;SDS011;46879;45.658;11.814;2023-06-01T05:22:50;9.13;;;5.18;;
60999;SDS011;46879;45.658;11.814;2023-06-01T05:27:51;9.85;;;5.25;;
60999;SDS011;46879;45.658;11.814;2023-06-01T05:32:52;7.95;;;5.40;;
60999;SDS011;46879;45.658;11.814;2023-06-01T05:37:52;6.18;;;5.20;;
60999;SDS011;46879;45.658;11.814;2023-06-01T05:42:53;8.93;;;5.68;;
60999;SDS011;46879;45.658;11.814;2023-06-01T05:47:53;10.45;;;5.57;;
60999;SDS011;46879;45.658;11.814;2023-06-01T05:52:55;15.50;;;6.05;;
60999;SDS011;46879;45.658;11.814;2023-06-01T05:57:55;11.10;;;6.50;;
60999;SDS011;46879;45.658;11.814;2023-06-01T06:02:56;12.43;;;6.55;;
60999;SDS011;46879;45.658;11.814;2023-06-01T06:07:57;28.25;;;7.53;;
60999;SDS011;46879;45.658;11.814;2023-06-01T06:12:57;24.85;;;6.53;;
60999;SDS011;46879;45.658;11.814;2023-06-01T06:17:58;29.80;;;7.47;;
60999;SDS011;46879;45.658;11.814;2023-06-01T06:22:58;22.98;;;6.82;;
60999;SDS011;46879;45.658;11.814;2023-06-01T06:27:59;13.05;;;6.15;;
60999;SDS011;46879;45.658;11.814;2023-06-01T06:33:00;10.05;;;5.72;;
60999;SDS011;46879;45.658;11.814;2023-06-01T06:38:00;13.77;;;6.35;;
60999;SDS011;46879;45.658;11.814;2023-06-01T06:43:01;17.63;;;6.03;;
60999;SDS011;46879;45.658;11.814;2023-06-01T06:48:01;8.77;;;5.70;;
60999;SDS011;46879;45.658;11.814;2023-06-01T06:53:02;13.68;;;6.05;;
60999;SDS011;46879;45.658;11.814;2023-06-01T06:58:03;19.42;;;5.63;;
60999;SDS011;46879;45.658;11.814;2023-06-01T07:03:04;13.38;;;5.53;;
60999;SDS011;46879;45.658;11.814;2023-06-01T07:08:05;22.45;;;5.60;;
60999;SDS011;46879;45.658;11.814;2023-06-01T07:13:06;13.82;;;6.50;;
60999;SDS011;46879;45.658;11.814;2023-06-01T07:18:06;8.82;;;5.07;;
60999;SDS011;46879;45.658;11.814;2023-06-01T07:23:08;13.48;;;6.07;;
60999;SDS011;46879;45.658;11.814;2023-06-01T07:28:08;16.60;;;5.68;;
60999;SDS011;46879;45.658;11.814;2023-06-01T07:33:09;10.60;;;5.45;;
60999;SDS011;46879;45.658;11.814;2023-06-01T07:38:10;10.75;;;5.28;;
60999;SDS011;46879;45.658;11.814;2023-06-01T07:43:11;14.77;;;5.70;;
60999;SDS011;46879;45.658;11.814;2023-06-01T07:48:11;12.07;;;5.85;;
60999;SDS011;46879;45.658;11.814;2023-06-01T07:53:12;11.55;;;5.57;;
60999;SDS011;46879;45.658;11.814;2023-06-01T07:58:13;7.65;;;5.43;;
60999;SDS011;46879;45.658;11.814;2023-06-01T08:03:14;13.25;;;5.20;;
60999;SDS011;46879;45.658;11.814;2023-06-01T08:08:15;12.85;;;4.80;;
60999;SDS011;46879;45.658;11.814;2023-06-01T08:13:15;11.60;;;5.60;;
60999;SDS011;46879;45.658;11.814;2023-06-01T08:18:16;10.00;;;5.40;;
60999;SDS011;46879;45.658;11.814;2023-06-01T08:23:17;7.18;;;5.35;;
60999;SDS011;46879;45.658;11.814;2023-06-01T08:28:17;9.98;;;5.20;;
60999;SDS011;46879;45.658;11.814;2023-06-01T08:33:18;11.75;;;5.65;;
60999;SDS011;46879;45.658;11.814;2023-06-01T08:38:18;8.90;;;5.22;;
60999;SDS011;46879;45.658;11.814;2023-06-01T08:43:19;10.48;;;5.40;;
60999;SDS011;46879;45.658;11.814;2023-06-01T08:48:20;7.88;;;5.40;;
60999;SDS011;46879;45.658;11.814;2023-06-01T08:53:21;9.43;;;5.28;;
60999;SDS011;46879;45.658;11.814;2023-06-01T08:58:22;8.57;;;4.85;;
60999;SDS011;46879;45.658;11.814;2023-06-01T09:03:23;12.00;;;5.75;;
60999;SDS011;46879;45.658;11.814;2023-06-01T09:08:25;7.75;;;5.40;;
60999;SDS011;46879;45.658;11.814;2023-06-01T09:13:35;11.15;;;5.63;;
60999;SDS011;46879;45.658;11.814;2023-06-01T09:18:50;8.75;;;5.57;;
60999;SDS011;46879;45.658;11.814;2023-06-01T09:23:55;9.40;;;4.87;;
60999;SDS011;46879;45.658;11.814;2023-06-01T09:28:59;11.75;;;5.10;;
60999;SDS011;46879;45.658;11.814;2023-06-01T09:34:00;10.23;;;5.10;;
60999;SDS011;46879;45.658;11.814;2023-06-01T09:39:07;7.90;;;5.15;;
60999;SDS011;46879;45.658;11.814;2023-06-01T09:44:14;9.25;;;5.18;;
60999;SDS011;46879;45.658;11.814;2023-06-01T09:49:32;11.23;;;5.57;;
60999;SDS011;46879;45.658;11.814;2023-06-01T09:54:41;8.20;;;5.50;;
60999;SDS011;46879;45.658;11.814;2023-06-01T09:59:46;5.85;;;4.72;;
60999;SDS011;46879;45.658;11.814;2023-06-01T10:04:51;9.50;;;5.00;;
60999;SDS011;46879;45.658;11.814;2023-06-01T10:09:59;9.15;;;5.28;;
60999;SDS011;46879;45.658;11.814;2023-06-01T10:15:03;8.57;;;5.18;;
60999;SDS011;46879;45.658;11.814;2023-06-01T10:20:05;10.20;;;5.60;;
60999;SDS011;46879;45.658;11.814;2023-06-01T10:25:06;9.38;;;5.40;;
60999;SDS011;46879;45.658;11.814;2023-06-01T10:30:11;14.45;;;5.60;;
60999;SDS011;46879;45.658;11.814;2023-06-01T10:40:28;10.25;;;5.22;;
60999;SDS011;46879;45.658;11.814;2023-06-01T10:45:35;9.50;;;5.75;;
60999;SDS011;46879;45.658;11.814;2023-06-01T10:50:39;7.38;;;5.25;;
60999;SDS011;46879;45.658;11.814;2023-06-01T10:55:41;8.48;;;5.05;;
60999;SDS011;46879;45.658;11.814;2023-06-01T11:00:42;7.55;;;5.20;;
60999;SDS011;46879;45.658;11.814;2023-06-01T11:05:46;6.82;;;5.30;;
60999;SDS011;46879;45.658;11.814;2023-06-01T11:26:22;7.07;;;5.07;;
60999;SDS011;46879;45.658;11.814;2023-06-01T11:31:25;9.45;;;5.20;;
60999;SDS011;46879;45.658;11.814;2023-06-01T11:36:26;5.47;;;4.93;;
60999;SDS011;46879;45.658;11.814;2023-06-01T11:41:28;6.75;;;5.43;;
60999;SDS011;46879;45.658;11.814;2023-06-01T11:46:28;5.85;;;5.13;;
60999;SDS011;46879;45.658;11.814;2023-06-01T11:51:29;9.00;;;5.07;;
60999;SDS011;46879;45.658;11.814;2023-06-01T11:56:36;8.50;;;5.25;;
60999;SDS011;46879;45.658;11.814;2023-06-01T12:01:42;9.82;;;5.72;;
60999;SDS011;46879;45.658;11.814;2023-06-01T12:06:47;7.43;;;5.40;;
60999;SDS011;46879;45.658;11.814;2023-06-01T12:11:49;9.88;;;5.30;;
60999;SDS011;46879;45.658;11.814;2023-06-01T12:16:53;8.43;;;5.40;;
60999;SDS011;46879;45.658;11.814;2023-06-01T12:22:04;8.73;;;5.50;;
60999;SDS011;46879;45.658;11.814;2023-06-01T12:27:15;8.88;;;5.35;;
60999;SDS011;46879;45.658;11.814;2023-06-01T12:32:21;8.55;;;5.53;;
60999;SDS011;46879;45.658;11.814;2023-06-01T12:37:22;9.95;;;5.50;;
60999;SDS011;46879;45.658;11.814;2023-06-01T12:42:36;10.13;;;6.10;;
60999;SDS011;46879;45.658;11.814;2023-06-01T12:47:39;8.65;;;5.18;;
60999;SDS011;46879;45.658;11.814;2023-06-01T12:52:42;10.20;;;5.20;;
60999;SDS011;46879;45.658;11.814;2023-06-01T12:57:42;9.68;;;5.97;;
60999;SDS011;46879;45.658;11.814;2023-06-01T13:02:43;52.85;;;13.35;;
60999;SDS011;46879;45.658;11.814;2023-06-01T13:07:47;73.53;;;13.75;;
60999;SDS011;46879;45.658;11.814;2023-06-01T13:12:48;58.85;;;13.20;;
60999;SDS011;46879;45.658;11.814;2023-06-01T13:17:49;64.05;;;13.35;;
60999;SDS011;46879;45.658;11.814;2023-06-01T13:22:50;51.30;;;12.00;;
60999;SDS011;46879;45.658;11.814;2023-06-01T13:27:50;59.60;;;11.93;;
60999;SDS011;46879;45.658;11.814;2023-06-01T13:32:51;39.13;;;9.82;;
60999;SDS011;46879;45.658;11.814;2023-06-01T13:37:51;45.97;;;10.05;;
60999;SDS011;46879;45.658;11.814;2023-06-01T13:42:53;29.75;;;9.13;;
60999;SDS011;46879;45.658;11.814;2023-06-01T13:47:54;29.52;;;9.35;;
60999;SDS011;46879;45.658;11.814;2023-06-01T13:52:55;34.25;;;9.48;;
60999;SDS011;46879;45.658;11.814;2023-06-01T13:57:55;22.05;;;7.57;;
60999;SDS011;46879;45.658;11.814;2023-06-01T14:02:56;26.88;;;8.27;;
60999;SDS011;46879;45.658;11.814;2023-06-01T14:07:57;27.92;;;8.10;;
60999;SDS011;46879;45.658;11.814;2023-06-01T14:12:57;22.23;;;7.80;;
60999;SDS011;46879;45.658;11.814;2023-06-01T14:17:58;26.42;;;8.02;;
60999;SDS011;46879;45.658;11.814;2023-06-01T14:22:58;23.17;;;7.03;;
60999;SDS011;46879;45.658;11.814;2023-06-01T14:28:00;19.13;;;6.45;;
60999;SDS011;46879;45.658;11.814;2023-06-01T14:33:01;21.42;;;7.00;;
60999;SDS011;46879;45.658;11.814;2023-06-01T14:38:01;17.55;;;6.75;;
60999;SDS011;46879;45.658;11.814;2023-06-01T14:43:02;16.23;;;5.95;;
60999;SDS011;46879;45.658;11.814;2023-06-01T14:48:02;16.25;;;6.65;;
60999;SDS011;46879;45.658;11.814;2023-06-01T14:53:03;13.43;;;5.32;;
60999;SDS011;46879;45.658;11.814;2023-06-01T14:58:04;18.10;;;6.13;;
60999;SDS011;46879;45.658;11.814;2023-06-01T15:03:04;13.23;;;6.20;;
60999;SDS011;46879;45.658;11.814;2023-06-01T15:08:07;14.88;;;6.18;;
60999;SDS011;46879;45.658;11.814;2023-06-01T15:13:07;14.48;;;6.03;;
60999;SDS011;46879;45.658;11.814;2023-06-01T15:18:08;14.57;;;5.30;;
60999;SDS011;46879;45.658;11.814;2023-06-01T15:23:09;12.75;;;5.82;;
60999;SDS011;46879;45.658;11.814;2023-06-01T15:28:09;10.07;;;5.47;;
60999;SDS011;46879;45.658;11.814;2023-06-01T15:33:10;9.73;;;5.38;;
60999;SDS011;46879;45.658;11.814;2023-06-01T15:38:11;9.82;;;5.07;;
60999;SDS011;46879;45.658;11.814;2023-06-01T15:43:12;11.07;;;5.20;;
60999;SDS011;46879;45.658;11.814;2023-06-01T15:48:12;10.32;;;4.80;;
60999;SDS011;46879;45.658;11.814;2023-06-01T15:53:13;12.48;;;5.47;;
60999;SDS011;46879;45.658;11.814;2023-06-01T15:58:14;11.73;;;5.32;;
60999;SDS011;46879;45.658;11.814;2023-06-01T16:03:14;12.82;;;4.80;;
60999;SDS011;46879;45.658;11.814;2023-06-01T16:08:15;15.35;;;5.90;;
60999;SDS011;46879;45.658;11.814;2023-06-01T16:13:16;12.07;;;5.25;;
60999;SDS011;46879;45.658;11.814;2023-06-01T16:18:17;10.93;;;5.18;;
60999;SDS011;46879;45.658;11.814;2023-06-01T16:23:18;7.57;;;4.95;;
60999;SDS011;46879;45.658;11.814;2023-06-01T16:28:19;9.52;;;4.78;;
60999;SDS011;46879;45.658;11.814;2023-06-01T16:33:19;11.43;;;5.22;;
60999;SDS011;46879;45.658;11.814;2023-06-01T16:38:20;9.27;;;5.13;;
60999;SDS011;46879;45.658;11.814;2023-06-01T16:43:20;7.45;;;4.28;;
60999;SDS011;46879;45.658;11.814;2023-06-01T16:48:21;7.05;;;4.45;;
60999;SDS011;46879;45.658;11.814;2023-06-01T16:53:23;8.43;;;4.78;;
60999;SDS011;46879;45.658;11.814;2023-06-01T16:58:24;10.38;;;4.85;;
60999;SDS011;46879;45.658;11.814;2023-06-01T17:03:24;7.80;;;4.97;;
60999;SDS011;46879;45.658;11.814;2023-06-01T17:08:25;8.77;;;4.47;;
60999;SDS011;46879;45.658;11.814;2023-06-01T17:13:26;8.85;;;4.95;;
60999;SDS011;46879;45.658;11.814;2023-06-01T17:18:26;9.27;;;4.65;;
60999;SDS011;46879;45.658;11.814;2023-06-01T17:23:27;6.40;;;4.30;;
60999;SDS011;46879;45.658;11.814;2023-06-01T17:28:28;8.50;;;5.13;;
60999;SDS011;46879;45.658;11.814;2023-06-01T17:33:29;11.07;;;4.95;;
60999;SDS011;46879;45.658;11.814;2023-06-01T17:38:30;7.28;;;4.57;;
60999;SDS011;46879;45.658;11.814;2023-06-01T17:43:30;9.02;;;4.80;;
60999;SDS011;46879;45.658;11.814;2023-06-01T17:48:31;8.80;;;4.80;;
60999;SDS011;46879;45.658;11.814;2023-06-01T17:53:31;7.88;;;4.47;;
60999;SDS011;46879;45.658;11.814;2023-06-01T17:58:32;10.35;;;4.53;;
60999;SDS011;46879;45.658;11.814;2023-06-01T18:03:33;6.38;;;4.43;;
60999;SDS011;46879;45.658;11.814;2023-06-01T18:08:33;7.72;;;4.15;;
60999;SDS011;46879;45.658;11.814;2023-06-01T18:13:34;7.72;;;4.28;;
60999;SDS011;46879;45.658;11.814;2023-06-01T18:18:35;5.63;;;4.22;;
60999;SDS011;46879;45.658;11.814;2023-06-01T18:23:35;9.93;;;4.05;;
60999;SDS011;46879;45.658;11.814;2023-06-01T18:28:36;6.50;;;4.13;;
60999;SDS011;46879;45.658;11.814;2023-06-01T18:33:36;8.77;;;4.25;;
60999;SDS011;46879;45.658;11.814;2023-06-01T18:38:37;6.30;;;3.85;;
60999;SDS011;46879;45.658;11.814;2023-06-01T18:43:40;8.95;;;3.47;;
60999;SDS011;46879;45.658;11.814;2023-06-01T18:48:40;9.82;;;4.70;;
60999;SDS011;46879;45.658;11.814;2023-06-01T18:53:41;6.88;;;3.72;;
60999;SDS011;46879;45.658;11.814;2023-06-01T18:58:45;9.10;;;4.40;;
60999;SDS011;46879;45.658;11.814;2023-06-01T19:03:47;6.13;;;3.95;;
60999;SDS011;46879;45.658;11.814;2023-06-01T19:08:50;5.38;;;3.83;;
60999;SDS011;46879;45.658;11.814;2023-06-01T19:13:50;13.15;;;4.20;;
60999;SDS011;46879;45.658;11.814;2023-06-01T19:18:52;10.77;;;4.32;;
60999;SDS011;46879;45.658;11.814;2023-06-01T19:23:55;6.45;;;3.83;;
60999;SDS011;46879;45.658;11.814;2023-06-01T19:29:08;5.88;;;3.70;;
60999;SDS011;46879;45.658;11.814;2023-06-01T19:34:12;13.05;;;4.28;;
60999;SDS011;46879;45.658;11.814;2023-06-01T19:39:18;7.90;;;3.75;;
60999;SDS011;46879;45.658;11.814;2023-06-01T19:44:34;7.00;;;4.13;;
60999;SDS011;46879;45.658;11.814;2023-06-01T19:49:36;6.40;;;4.28;;
60999;SDS011;46879;45.658;11.814;2023-06-01T19:54:40;8.10;;;5.10;;
60999;SDS011;46879;45.658;11.814;2023-06-01T19:59:41;7.93;;;4.50;;
60999;SDS011;46879;45.658;11.814;2023-06-01T20:04:42;10.00;;;3.70;;
60999;SDS011;46879;45.658;11.814;2023-06-01T20:09:43;10.23;;;4.60;;
60999;SDS011;46879;45.658;11.814;2023-06-01T20:14:45;9.77;;;4.18;;
60999;SDS011;46879;45.658;11.814;2023-06-01T20:19:48;4.55;;;3.88;;
60999;SDS011;46879;45.658;11.814;2023-06-01T20:24:49;5.40;;;3.83;;
60999;SDS011;46879;45.658;11.814;2023-06-01T20:29:50;6.35;;;3.72;;
60999;SDS011;46879;45.658;11.814;2023-06-01T20:34:50;6.68;;;4.22;;
60999;SDS011;46879;45.658;11.814;2023-06-01T20:39:51;8.35;;;4.82;;
60999;SDS011;46879;45.658;11.814;2023-06-01T20:44:52;4.68;;;3.83;;
60999;SDS011;46879;45.658;11.814;2023-06-01T20:49:52;5.53;;;3.88;;
60999;SDS011;46879;45.658;11.814;2023-06-01T20:54:53;6.03;;;3.75;;
60999;SDS011;46879;45.658;11.814;2023-06-01T20:59:53;4.38;;;3.35;;
60999;SDS011;46879;45.658;11.814;2023-06-01T21:04:54;6.22;;;4.85;;
60999;SDS011;46879;45.658;11.814;2023-06-01T21:09:55;6.35;;;4.10;;
60999;SDS011;46879;45.658;11.814;2023-06-01T21:14:55;6.45;;;4.47;;
60999;SDS011;46879;45.658;11.814;2023-06-01T21:19:56;13.63;;;4.28;;
60999;SDS011;46879;45.658;11.814;2023-06-01T21:24:56;6.88;;;4.07;;
60999;SDS011;46879;45.658;11.814;2023-06-01T21:29:57;10.10;;;3.90;;
60999;SDS011;46879;45.658;11.814;2023-06-01T21:34:58;5.53;;;4.03;;
60999;SDS011;46879;45.658;11.814;2023-06-01T21:39:58;7.63;;;4.28;;
60999;SDS011;46879;45.658;11.814;2023-06-01T21:45:00;6.90;;;4.18;;
60999;SDS011;46879;45.658;11.814;2023-06-01T21:50:01;7.18;;;3.88;;
60999;SDS011;46879;45.658;11.814;2023-06-01T21:55:02;11.27;;;4.10;;
60999;SDS011;46879;45.658;11.814;2023-06-01T22:00:03;10.15;;;4.28;;
60999;SDS011;46879;45.658;11.814;2023-06-01T22:05:06;6.05;;;3.70;;
60999;SDS011;46879;45.658;11.814;2023-06-01T22:10:07;5.43;;;3.60;;
60999;SDS011;46879;45.658;11.814;2023-06-01T22:15:08;7.05;;;4.00;;
60999;SDS011;46879;45.658;11.814;2023-06-01T22:20:10;10.55;;;4.05;;
60999;SDS011;46879;45.658;11.814;2023-06-01T22:25:11;5.10;;;3.88;;
60999;SDS011;46879;45.658;11.814;2023-06-01T22:30:11;8.40;;;4.13;;
60999;SDS011;46879;45.658;11.814;2023-06-01T22:35:12;6.13;;;3.97;;
60999;SDS011;46879;45.658;11.814;2023-06-01T22:40:13;7.45;;;4.50;;
60999;SDS011;46879;45.658;11.814;2023-06-01T22:45:14;7.45;;;4.72;;
60999;SDS011;46879;45.658;11.814;2023-06-01T22:50:14;11.18;;;4.40;;
60999;SDS011;46879;45.658;11.814;2023-06-01T22:55:18;5.63;;;4.50;;
60999;SDS011;46879;45.658;11.814;2023-06-01T23:00:18;6.15;;;4.60;;
60999;SDS011;46879;45.658;11.814;2023-06-01T23:05:19;6.75;;;4.53;;
60999;SDS011;46879;45.658;11.814;2023-06-01T23:10:20;10.43;;;4.55;;
60999;SDS011;46879;45.658;11.814;2023-06-01T23:15:21;9.85;;;4.65;;
60999;SDS011;46879;45.658;11.814;2023-06-01T23:20:23;9.23;;;5.35;;
60999;SDS011;46879;45.658;11.814;2023-06-01T23:25:24;7.82;;;4.75;;
60999;SDS011;46879;45.658;11.814;2023-06-01T23:30:25;6.70;;;4.88;;
60999;SDS011;46879;45.658;11.814;2023-06-01T23:35:26;5.47;;;4.85;;
60999;SDS011;46879;45.658;11.814;2023-06-01T23:40:27;8.40;;;4.95;;
60999;SDS011;46879;45.658;11.814;2023-06-01T23:45:27;7.05;;;4.90;;
60999;SDS011;46879;45.658;11.814;2023-06-01T23:50:28;8.48;;;5.13;;
60999;SDS011;46879;45.658;11.814;2023-06-01T23:55:29;6.40;;;5.15;;
